Terminal Aerodrome Forecast
Issued by NWS

Current Version | Previous Version | Text Only | Print | Product List | Glossary Off
Versions: 1 2 3 4 5 6 7 8 9 10 11 12 13 14 15 16 17

000
FTUS41 KILN 271700
TAFLUK
TAF
KLUK 271729Z 2718/2818 VRB03KT P6SM FEW090 SCT250
     FM271900 35004KT P6SM SCT050
     FM280000 00000KT P6SM SCT250
     FM280500 00000KT 5SM BR SCT250
     FM280900 00000KT 1SM BR SCT250
     FM281200 00000KT 3SM BR SCT250
     FM281300 06003KT P6SM BKN250=

USA.gov is the U.S. government's official web portal to all federal, state and local government web resources and services.